IN-0037 weather

Namchi Helipad
Nayabazar, Sikkim, India

Public forecast

Using degrees Celsius for public forecast. Weather courtesy of forecast.io.

METAR (pilot weather report)

Closest report is Bagdogra Airport, 28.6 nm (52.9 km) S. Retrieved 2019/07/23 23:30 UTC (34 minutes ago):

VEBD 232330Z 11006KT 2000 RASH SCT003 BKN010 BKN020 25/24 Q1001 NOSIG

TAF (pilot weather forecast)

Forecast is more than 6 hours old.

Closest forecast is Bagdogra Airport, 28.6 nm (52.9 km) S. Retrieved 2019/07/23 12:30 UTC (12 hours ago):

TAF VEBD 230930Z 2312/2324 07008KT 6000 SCT020 BKN080 TEMPO 2314/2318 1500 TSRA FEW030CB OVC080 TEMPO 2320/2324 3000 TSRA FEW030CB